createdAt,value
2017-12-13T00:02:16.243Z,2.58
2017-12-13T00:04:44.508Z,2.51
2017-12-13T00:07:14.560Z,2.58
2017-12-13T00:09:42.825Z,2.55
2017-12-13T00:12:15.677Z,2.45
2017-12-13T00:14:43.938Z,2.46
2017-12-13T00:17:14.276Z,2.41
2017-12-13T00:19:42.543Z,2.37
2017-12-13T00:22:14.100Z,2.43
2017-12-13T00:24:42.378Z,2.39
2017-12-13T00:27:17.524Z,2.41
2017-12-13T00:29:45.792Z,2.39
2017-12-13T00:32:14.055Z,2.48
2017-12-13T00:34:42.384Z,2.55
2017-12-13T00:37:17.524Z,2.53
2017-12-13T00:39:45.833Z,2.42
2017-12-13T00:42:14.108Z,2.44
2017-12-13T00:44:42.516Z,2.43
2017-12-13T00:47:16.561Z,2.43
2017-12-13T00:49:45.008Z,2.43
2017-12-13T00:52:14.294Z,2.39
2017-12-13T00:54:42.719Z,2.43
2017-12-13T00:57:14.512Z,2.47
2017-12-13T00:59:42.808Z,2.50
2017-12-13T01:02:14.373Z,2.45
2017-12-13T01:04:42.681Z,2.48
2017-12-13T01:07:13.968Z,2.46
2017-12-13T01:09:42.239Z,2.60
2017-12-13T01:12:13.721Z,2.60
2017-12-13T01:14:41.984Z,2.62
2017-12-13T01:17:13.888Z,2.67
2017-12-13T01:19:42.176Z,2.57
2017-12-13T01:22:13.885Z,2.50
2017-12-13T01:24:42.364Z,2.43
2017-12-13T01:27:17.599Z,2.39
2017-12-13T01:29:46.772Z,2.34
2017-12-13T01:32:15.052Z,2.19
2017-12-13T01:34:43.560Z,2.08
2017-12-13T01:37:14.777Z,2.07
2017-12-13T01:39:43.244Z,2.00
2017-12-13T01:42:15.195Z,1.98
2017-12-13T01:44:43.489Z,2.08
2017-12-13T01:47:15.625Z,2.02
2017-12-13T01:49:43.953Z,2.03
2017-12-13T01:52:19.313Z,2.10
2017-12-13T01:54:47.613Z,1.96
2017-12-13T01:57:16.052Z,1.82
2017-12-13T01:59:44.424Z,1.85
2017-12-13T02:02:14.293Z,1.71
2017-12-13T02:04:42.613Z,1.74
2017-12-13T02:07:14.231Z,1.79
2017-12-13T02:09:42.496Z,1.72
2017-12-13T02:12:13.809Z,1.75
2017-12-13T02:14:42.073Z,1.68
2017-12-13T02:17:17.066Z,1.65
2017-12-13T02:19:45.749Z,1.37
2017-12-13T02:22:13.999Z,1.46
2017-12-13T02:24:42.259Z,1.50
2017-12-13T02:27:13.803Z,1.53
2017-12-13T02:29:42.095Z,1.52
2017-12-13T02:32:13.373Z,1.59
2017-12-13T02:34:41.650Z,1.58
2017-12-13T02:37:16.492Z,1.57
2017-12-13T02:39:44.761Z,1.54
2017-12-13T02:42:14.642Z,1.61
2017-12-13T02:44:42.917Z,1.55
2017-12-13T02:47:15.031Z,1.62
2017-12-13T02:49:43.307Z,1.66
2017-12-13T02:52:13.990Z,1.70
2017-12-13T02:54:42.368Z,1.91
2017-12-13T02:57:17.556Z,1.86
2017-12-13T02:59:45.837Z,1.81
2017-12-13T03:02:14.717Z,1.93
2017-12-13T03:04:43.002Z,2.02
2017-12-13T03:07:14.596Z,2.04
2017-12-13T03:09:42.889Z,1.96
2017-12-13T03:12:14.987Z,2.05
2017-12-13T03:14:43.328Z,2.09
2017-12-13T03:17:15.577Z,2.13
2017-12-13T03:19:43.868Z,2.20
2017-12-13T03:22:15.826Z,2.04
2017-12-13T03:24:44.092Z,2.07
2017-12-13T03:27:14.249Z,2.16
2017-12-13T03:29:42.529Z,2.33
2017-12-13T03:32:14.704Z,2.74
2017-12-13T03:34:43.069Z,2.95
2017-12-13T03:37:15.063Z,3.07
2017-12-13T03:39:43.376Z,3.07
2017-12-13T03:42:14.803Z,3.14
2017-12-13T03:44:43.073Z,3.13
2017-12-13T03:47:15.812Z,3.38
2017-12-13T03:49:44.088Z,3.38
2017-12-13T03:52:17.280Z,3.42
2017-12-13T03:54:45.560Z,3.50
2017-12-13T03:57:14.281Z,3.51
2017-12-13T03:59:43.034Z,3.42
2017-12-13T04:02:14.413Z,3.50
2017-12-13T04:04:43.109Z,3.49
2017-12-13T04:07:15.194Z,3.45
2017-12-13T04:09:43.852Z,3.63
2017-12-13T04:12:15.728Z,3.57
2017-12-13T04:14:44.014Z,3.60
2017-12-13T04:17:14.210Z,3.50
2017-12-13T04:19:42.709Z,3.54
2017-12-13T04:22:14.214Z,3.57
2017-12-13T04:24:42.521Z,3.54
2017-12-13T04:27:14.085Z,3.58
2017-12-13T04:29:42.362Z,3.53
2017-12-13T04:32:13.904Z,3.57
2017-12-13T04:34:42.199Z,3.55
2017-12-13T04:37:13.452Z,3.65
2017-12-13T04:39:41.761Z,3.72
2017-12-13T04:42:17.161Z,3.72
2017-12-13T04:44:45.443Z,3.77
2017-12-13T04:47:14.807Z,3.83
2017-12-13T04:49:43.086Z,3.81
2017-12-13T04:52:14.393Z,3.82
2017-12-13T04:54:42.660Z,3.85
2017-12-13T04:57:14.573Z,4.01
2017-12-13T04:59:42.857Z,3.98
2017-12-13T05:02:14.987Z,4.00
2017-12-13T05:04:43.425Z,4.05
2017-12-13T05:07:16.271Z,4.03
2017-12-13T05:09:44.544Z,4.03
2017-12-13T05:12:13.888Z,4.08
2017-12-13T05:14:42.152Z,4.03
2017-12-13T05:17:14.304Z,3.94
2017-12-13T05:19:42.566Z,3.95
2017-12-13T05:22:13.823Z,4.09
2017-12-13T05:24:42.098Z,4.10
2017-12-13T05:27:14.374Z,4.05
2017-12-13T05:29:42.673Z,4.02
2017-12-13T05:32:14.677Z,4.04
2017-12-13T05:34:43.189Z,4.14
2017-12-13T05:37:13.048Z,4.08
2017-12-13T05:39:41.846Z,4.06
2017-12-13T05:42:13.093Z,4.08
2017-12-13T05:44:41.387Z,4.18
2017-12-13T05:47:16.531Z,4.17
2017-12-13T05:49:44.813Z,4.26
2017-12-13T05:52:13.096Z,4.38
2017-12-13T05:54:41.388Z,4.44
2017-12-13T05:57:13.568Z,4.49
2017-12-13T05:59:41.849Z,4.49
2017-12-13T06:02:13.372Z,4.55
2017-12-13T06:04:41.657Z,4.53
2017-12-13T06:07:15.578Z,4.45
2017-12-13T06:09:43.868Z,4.48
2017-12-13T06:12:13.058Z,4.48
2017-12-13T06:14:41.352Z,4.44
2017-12-13T06:17:12.928Z,4.43
2017-12-13T06:19:41.203Z,4.55
2017-12-13T06:22:12.508Z,4.50
2017-12-13T06:24:40.860Z,4.49
2017-12-13T06:27:13.352Z,4.55
2017-12-13T06:29:41.612Z,4.50
2017-12-13T06:32:13.772Z,4.58
2017-12-13T06:34:42.273Z,4.51
2017-12-13T06:37:13.322Z,4.53
2017-12-13T06:39:41.900Z,4.49
2017-12-13T06:42:13.990Z,4.63
2017-12-13T06:44:42.261Z,4.55
2017-12-13T06:47:13.464Z,4.52
2017-12-13T06:49:41.745Z,4.65
2017-12-13T06:52:14.241Z,4.53
2017-12-13T06:54:42.528Z,4.54
2017-12-13T06:57:14.564Z,4.55
2017-12-13T06:59:42.829Z,4.54
2017-12-13T07:02:14.957Z,4.49
2017-12-13T07:04:43.793Z,4.45
2017-12-13T07:07:13.405Z,4.45
2017-12-13T07:09:41.695Z,4.45
2017-12-13T07:12:13.809Z,4.38
2017-12-13T07:14:42.225Z,4.51
2017-12-13T07:17:14.863Z,4.57
2017-12-13T07:19:43.155Z,4.51
2017-12-13T07:22:14.629Z,4.53
2017-12-13T07:24:42.908Z,4.63
2017-12-13T07:27:14.239Z,4.72
2017-12-13T07:29:42.789Z,4.67
2017-12-13T07:32:14.676Z,4.64
2017-12-13T07:34:42.959Z,4.67
2017-12-13T07:37:14.948Z,4.79
2017-12-13T07:39:43.347Z,4.71
2017-12-13T07:42:13.316Z,4.69
2017-12-13T07:44:41.603Z,4.67
2017-12-13T07:47:16.504Z,4.77
2017-12-13T07:49:44.781Z,4.73
2017-12-13T07:52:13.140Z,4.84
2017-12-13T07:54:41.568Z,4.80
2017-12-13T07:57:16.723Z,4.76
2017-12-13T07:59:45.041Z,4.90
2017-12-13T08:02:13.365Z,4.90
2017-12-13T08:04:41.655Z,4.91
2017-12-13T08:07:16.643Z,4.96
2017-12-13T08:09:44.929Z,4.99
2017-12-13T08:12:13.249Z,5.06
2017-12-13T08:14:41.512Z,5.00
2017-12-13T08:17:16.637Z,5.01
2017-12-13T08:19:44.934Z,5.10
2017-12-13T08:22:13.327Z,5.13
2017-12-13T08:24:41.593Z,5.17
2017-12-13T08:27:16.743Z,5.18
2017-12-13T08:29:45.032Z,5.14
2017-12-13T08:32:13.640Z,5.24
2017-12-13T08:34:42.417Z,5.33
2017-12-13T08:37:14.028Z,5.26
2017-12-13T08:39:42.305Z,5.25
2017-12-13T08:42:13.064Z,5.31
2017-12-13T08:44:41.627Z,5.35
2017-12-13T08:47:12.917Z,5.34
2017-12-13T08:49:41.233Z,5.45
2017-12-13T08:52:12.774Z,5.39
2017-12-13T08:54:41.128Z,5.34
2017-12-13T08:57:16.136Z,5.34
2017-12-13T08:59:44.561Z,5.33
2017-12-13T09:02:13.180Z,5.33
2017-12-13T09:04:41.472Z,5.41
2017-12-13T09:07:12.921Z,5.51
2017-12-13T09:09:41.193Z,5.49
2017-12-13T09:12:16.158Z,5.43
2017-12-13T09:14:44.476Z,5.50
2017-12-13T09:17:14.252Z,5.42
2017-12-13T09:19:42.489Z,5.39
2017-12-13T09:22:13.828Z,5.29
2017-12-13T09:24:42.112Z,5.21
2017-12-13T09:27:14.224Z,5.07
2017-12-13T09:29:42.500Z,5.06
2017-12-13T09:32:13.173Z,5.13
2017-12-13T09:34:41.483Z,5.02
2017-12-13T09:37:12.966Z,4.99
2017-12-13T09:39:41.717Z,4.99
2017-12-13T09:42:13.293Z,4.98
2017-12-13T09:44:41.577Z,5.14
2017-12-13T09:47:16.510Z,5.20
2017-12-13T09:49:44.781Z,5.27
2017-12-13T09:52:13.426Z,5.28
2017-12-13T09:54:41.707Z,5.31
2017-12-13T09:57:15.860Z,5.33
2017-12-13T09:59:44.134Z,5.41
2017-12-13T10:02:13.633Z,5.49
2017-12-13T10:04:42.224Z,5.56
2017-12-13T10:07:14.085Z,5.62
2017-12-13T10:09:42.361Z,5.64
2017-12-13T10:12:13.573Z,5.63
2017-12-13T10:14:42.341Z,5.58
2017-12-13T10:17:14.273Z,5.63
2017-12-13T10:19:42.594Z,5.66
2017-12-13T10:22:13.784Z,5.64
2017-12-13T10:24:42.077Z,5.72
2017-12-13T10:27:13.292Z,5.77
2017-12-13T10:29:41.805Z,5.83
2017-12-13T10:32:14.073Z,5.84
2017-12-13T10:34:42.365Z,5.83
2017-12-13T10:37:14.298Z,5.84
2017-12-13T10:39:42.749Z,5.77
2017-12-13T10:42:14.836Z,5.84
2017-12-13T10:44:43.127Z,5.82
2017-12-13T10:47:13.414Z,5.89
2017-12-13T10:49:41.645Z,5.88
2017-12-13T10:52:12.945Z,5.88
2017-12-13T10:54:41.229Z,5.86
2017-12-13T10:57:12.494Z,5.92
2017-12-13T10:59:40.777Z,5.98
2017-12-13T11:02:12.394Z,5.95
2017-12-13T11:04:44.912Z,5.99
2017-12-13T11:07:13.264Z,5.93
2017-12-13T11:09:41.537Z,5.89
2017-12-13T11:12:13.302Z,5.93
2017-12-13T11:14:41.573Z,5.85
2017-12-13T11:17:13.097Z,5.95
2017-12-13T11:19:41.394Z,5.90
2017-12-13T11:22:13.655Z,5.86
2017-12-13T11:24:41.942Z,5.89
2017-12-13T11:27:13.352Z,5.91
2017-12-13T11:29:41.657Z,5.88
2017-12-13T11:32:13.588Z,5.82
2017-12-13T11:34:41.907Z,5.82
2017-12-13T11:37:13.567Z,5.83
2017-12-13T11:39:41.846Z,5.90
2017-12-13T11:42:13.978Z,5.86
2017-12-13T11:44:42.295Z,5.77
2017-12-13T11:47:13.827Z,5.89
2017-12-13T11:49:42.115Z,5.90
2017-12-13T11:52:13.340Z,5.81
2017-12-13T11:54:41.622Z,5.94
2017-12-13T11:57:16.557Z,5.93
2017-12-13T11:59:44.853Z,5.97
2017-12-13T12:02:13.214Z,6.00
2017-12-13T12:04:41.489Z,5.97
2017-12-13T12:07:16.530Z,6.02
2017-12-13T12:09:45.108Z,5.96
2017-12-13T12:12:13.414Z,5.96
2017-12-13T12:14:41.688Z,5.99
2017-12-13T12:17:13.067Z,6.02
2017-12-13T12:19:41.366Z,6.07
2017-12-13T12:22:13.111Z,6.12
2017-12-13T12:24:41.387Z,6.23
2017-12-13T12:27:13.793Z,6.19
2017-12-13T12:29:42.101Z,6.25
2017-12-13T12:32:13.695Z,6.25
2017-12-13T12:34:42.148Z,6.26
2017-12-13T12:37:13.824Z,6.30
2017-12-13T12:39:42.114Z,6.19
2017-12-13T12:42:13.177Z,6.32
2017-12-13T12:44:41.459Z,6.15
2017-12-13T12:47:12.979Z,6.06
2017-12-13T12:49:41.569Z,6.14
2017-12-13T12:52:13.381Z,6.09
2017-12-13T12:54:41.678Z,6.01
2017-12-13T12:57:14.050Z,6.01
2017-12-13T12:59:42.327Z,6.17
2017-12-13T13:02:13.171Z,6.03
2017-12-13T13:04:41.439Z,6.05
2017-12-13T13:07:12.995Z,5.86
2017-12-13T13:09:41.275Z,5.84
2017-12-13T13:12:12.547Z,5.84
2017-12-13T13:14:41.323Z,5.88
2017-12-13T13:17:12.580Z,5.94
2017-12-13T13:19:41.165Z,5.74
2017-12-13T13:22:12.792Z,5.87
2017-12-13T13:24:41.289Z,5.66
2017-12-13T13:27:12.540Z,5.62
2017-12-13T13:29:40.821Z,5.71
2017-12-13T13:32:15.430Z,5.69
2017-12-13T13:34:43.976Z,5.57
2017-12-13T13:37:13.382Z,5.68
2017-12-13T13:39:41.692Z,5.58
2017-12-13T13:42:15.785Z,5.58
2017-12-13T13:44:44.078Z,5.63
2017-12-13T13:47:13.465Z,5.51
2017-12-13T13:49:41.784Z,5.46
2017-12-13T13:52:13.935Z,5.49
2017-12-13T13:54:42.211Z,5.44
2017-12-13T13:57:14.986Z,5.42
2017-12-13T13:59:43.264Z,5.45
2017-12-13T14:02:13.141Z,5.45
2017-12-13T14:04:41.449Z,5.30
2017-12-13T14:07:12.982Z,5.30
2017-12-13T14:09:41.361Z,5.37
2017-12-13T14:12:14.337Z,5.20
2017-12-13T14:14:42.793Z,5.28
2017-12-13T14:17:15.301Z,5.31
2017-12-13T14:19:43.969Z,5.18
2017-12-13T14:22:13.164Z,5.24
2017-12-13T14:24:41.452Z,5.22
2017-12-13T14:27:14.797Z,5.26
2017-12-13T14:29:43.094Z,5.25
2017-12-13T14:32:13.352Z,5.18
2017-12-13T14:34:42.301Z,5.14
2017-12-13T14:37:13.400Z,5.24
2017-12-13T14:39:41.669Z,5.17
2017-12-13T14:42:16.820Z,5.16
2017-12-13T14:44:45.408Z,5.11
2017-12-13T14:47:13.705Z,5.15
2017-12-13T14:49:41.987Z,5.11
2017-12-13T14:52:13.226Z,5.07
2017-12-13T14:54:41.494Z,5.08
2017-12-13T14:57:16.736Z,5.07
2017-12-13T14:59:45.029Z,5.18
2017-12-13T15:02:13.592Z,5.13
2017-12-13T15:04:42.031Z,5.15
2017-12-13T15:07:13.384Z,5.22
2017-12-13T15:09:41.907Z,5.09
2017-12-13T15:12:13.290Z,5.25
2017-12-13T15:14:41.651Z,5.15
2017-12-13T15:17:16.776Z,5.12
2017-12-13T15:19:45.065Z,5.23
2017-12-13T15:22:13.333Z,5.20
2017-12-13T15:24:41.621Z,5.18
2017-12-13T15:27:16.648Z,5.17
2017-12-13T15:29:45.536Z,5.20
2017-12-13T15:32:13.817Z,5.21
2017-12-13T15:34:42.104Z,5.25
2017-12-13T15:37:13.172Z,5.24
2017-12-13T15:39:42.083Z,5.21
2017-12-13T15:42:15.081Z,5.27
2017-12-13T15:44:43.346Z,5.14
2017-12-13T15:47:14.913Z,5.11
2017-12-13T15:49:43.235Z,5.08
2017-12-13T15:52:13.130Z,5.11
2017-12-13T15:54:41.417Z,5.19
2017-12-13T15:57:13.135Z,5.12
2017-12-13T15:59:41.377Z,5.11
2017-12-13T16:02:14.293Z,5.10
2017-12-13T16:04:42.591Z,5.13
2017-12-13T16:07:14.405Z,5.18
2017-12-13T16:09:42.681Z,5.21
2017-12-13T16:12:14.591Z,5.19
2017-12-13T16:14:43.105Z,5.16
2017-12-13T16:17:14.716Z,5.18
2017-12-13T16:19:43.229Z,5.22
2017-12-13T16:22:13.283Z,5.19
2017-12-13T16:24:41.760Z,5.19
2017-12-13T16:27:13.044Z,5.22
2017-12-13T16:29:41.330Z,5.27
2017-12-13T16:32:12.573Z,5.41
2017-12-13T16:34:41.428Z,5.34
2017-12-13T16:37:15.620Z,5.32
2017-12-13T16:39:43.937Z,5.38
2017-12-13T16:42:13.449Z,5.42
2017-12-13T16:44:41.732Z,5.49
2017-12-13T16:47:13.197Z,5.57
2017-12-13T16:49:41.658Z,5.57
2017-12-13T16:52:16.679Z,5.55
2017-12-13T16:54:44.948Z,5.56
2017-12-13T16:57:13.233Z,5.54
2017-12-13T16:59:41.513Z,5.54
2017-12-13T17:02:16.689Z,5.67
2017-12-13T17:04:45.190Z,5.64
2017-12-13T17:07:13.469Z,5.64
2017-12-13T17:09:41.747Z,5.57
2017-12-13T17:12:13.756Z,5.55
2017-12-13T17:14:42.041Z,5.61
2017-12-13T17:17:14.097Z,5.65
2017-12-13T17:19:42.365Z,5.69
2017-12-13T17:22:15.320Z,5.78
2017-12-13T17:24:43.552Z,5.80
2017-12-13T17:27:13.718Z,5.71
2017-12-13T17:29:41.978Z,5.66
2017-12-13T17:32:13.405Z,5.67
2017-12-13T17:34:41.674Z,5.70
2017-12-13T17:37:13.649Z,5.79
2017-12-13T17:39:42.112Z,5.80
2017-12-13T17:42:13.900Z,5.85
2017-12-13T17:44:42.194Z,5.86
2017-12-13T17:47:13.377Z,5.76
2017-12-13T17:49:42.372Z,5.97
2017-12-13T17:52:13.184Z,5.96
2017-12-13T17:54:41.446Z,5.96
2017-12-13T17:57:12.918Z,5.96
2017-12-13T17:59:41.196Z,6.01
2017-12-13T18:02:16.241Z,5.96
2017-12-13T18:04:44.509Z,6.01
2017-12-13T18:07:13.264Z,5.99
2017-12-13T18:09:42.322Z,6.06
2017-12-13T18:12:14.012Z,6.01
2017-12-13T18:14:42.513Z,6.05
2017-12-13T18:17:13.165Z,6.11
2017-12-13T18:19:41.438Z,6.07
2017-12-13T18:22:12.866Z,6.16
2017-12-13T18:24:41.124Z,6.17
2017-12-13T18:27:16.092Z,6.19
2017-12-13T18:29:44.471Z,6.18
2017-12-13T18:32:13.809Z,6.22
2017-12-13T18:34:42.453Z,6.29
2017-12-13T18:37:14.077Z,6.27
2017-12-13T18:39:42.377Z,6.26
2017-12-13T18:42:14.482Z,6.33
2017-12-13T18:44:42.858Z,6.33
2017-12-13T18:47:14.772Z,6.36
2017-12-13T18:49:43.154Z,6.41
2017-12-13T18:52:14.581Z,6.38
2017-12-13T18:54:42.893Z,6.45
2017-12-13T18:57:15.824Z,6.48
2017-12-13T18:59:44.125Z,6.42
2017-12-13T19:02:13.472Z,6.41
2017-12-13T19:04:41.757Z,6.42
2017-12-13T19:07:13.558Z,6.49
2017-12-13T19:09:42.668Z,6.58
2017-12-13T19:12:14.716Z,6.59
2017-12-13T19:14:42.977Z,6.62
2017-12-13T19:17:15.079Z,6.63
2017-12-13T19:19:43.373Z,6.69
2017-12-13T19:22:14.614Z,6.67
2017-12-13T19:24:43.184Z,6.67
2017-12-13T19:27:15.136Z,6.69
2017-12-13T19:29:43.692Z,6.67
2017-12-13T19:32:13.730Z,6.87
2017-12-13T19:34:42.492Z,6.87
2017-12-13T19:37:14.001Z,6.83
2017-12-13T19:39:42.255Z,6.91
2017-12-13T19:42:13.213Z,6.92
2017-12-13T19:44:41.478Z,6.98
2017-12-13T19:47:13.132Z,6.98
2017-12-13T19:49:42.416Z,6.94
2017-12-13T19:52:14.180Z,7.07
2017-12-13T19:54:42.888Z,7.16
2017-12-13T19:57:14.497Z,7.21
2017-12-13T19:59:42.813Z,7.25
2017-12-13T20:02:14.043Z,7.28
2017-12-13T20:04:42.605Z,7.25
2017-12-13T20:07:14.490Z,7.32
2017-12-13T20:09:42.745Z,7.31
2017-12-13T20:12:14.092Z,7.27
2017-12-13T20:14:42.377Z,7.19
2017-12-13T20:17:13.874Z,7.06
2017-12-13T20:19:42.390Z,6.94
2017-12-13T20:22:13.638Z,6.75
2017-12-13T20:24:41.929Z,6.83
2017-12-13T20:27:13.428Z,6.78
2017-12-13T20:29:41.664Z,6.86
2017-12-13T20:32:13.344Z,6.68
2017-12-13T20:34:42.142Z,6.66
2017-12-13T20:37:13.933Z,6.73
2017-12-13T20:39:42.353Z,6.70
2017-12-13T20:42:14.236Z,6.59
2017-12-13T20:44:42.537Z,6.75
2017-12-13T20:47:14.527Z,6.73
2017-12-13T20:49:42.836Z,6.80
2017-12-13T20:52:14.865Z,6.75
2017-12-13T20:54:43.146Z,6.74
2017-12-13T20:57:12.898Z,6.71
2017-12-13T20:59:41.177Z,6.71
2017-12-13T21:02:13.128Z,6.69
2017-12-13T21:04:41.681Z,6.79
2017-12-13T21:07:12.400Z,6.74
2017-12-13T21:09:40.653Z,6.85
2017-12-13T21:12:12.382Z,6.94
2017-12-13T21:14:40.651Z,6.92
2017-12-13T21:17:12.410Z,6.86
2017-12-13T21:19:40.693Z,7.00
2017-12-13T21:22:12.325Z,6.98
2017-12-13T21:24:40.796Z,6.96
2017-12-13T21:27:14.753Z,6.97
2017-12-13T21:29:43.039Z,6.90
2017-12-13T21:32:12.257Z,6.97
2017-12-13T21:34:40.531Z,7.00
2017-12-13T21:37:12.042Z,7.02
2017-12-13T21:39:40.312Z,6.90
2017-12-13T21:42:11.601Z,6.93
2017-12-13T21:44:39.938Z,6.87
2017-12-13T21:47:14.685Z,6.84
2017-12-13T21:49:43.373Z,6.82
2017-12-13T21:52:12.240Z,6.71
2017-12-13T21:54:41.281Z,6.73
2017-12-13T21:57:12.269Z,6.67
2017-12-13T21:59:40.565Z,6.76
2017-12-13T22:02:12.123Z,6.71
2017-12-13T22:04:40.385Z,6.73
2017-12-13T22:07:12.646Z,6.79
2017-12-13T22:09:40.933Z,6.76
2017-12-13T22:12:12.273Z,6.77
2017-12-13T22:14:40.545Z,6.67
2017-12-13T22:17:12.084Z,6.68
2017-12-13T22:19:40.365Z,6.71
2017-12-13T22:22:11.902Z,6.70
2017-12-13T22:24:40.204Z,6.73
2017-12-13T22:27:15.313Z,6.70
2017-12-13T22:29:43.621Z,6.73
2017-12-13T22:32:13.178Z,6.86
2017-12-13T22:34:41.545Z,6.79
2017-12-13T22:37:12.355Z,6.86
2017-12-13T22:39:40.928Z,6.84
2017-12-13T22:42:14.861Z,6.78
2017-12-13T22:44:43.156Z,6.82
2017-12-13T22:47:12.470Z,6.82
2017-12-13T22:49:40.925Z,6.69
2017-12-13T22:52:14.880Z,6.68
2017-12-13T22:54:43.144Z,6.67
2017-12-13T22:57:12.533Z,6.67
2017-12-13T22:59:40.965Z,6.64
2017-12-13T23:02:13.063Z,6.61
2017-12-13T23:04:41.350Z,6.58
2017-12-13T23:07:12.361Z,6.63
2017-12-13T23:09:40.645Z,6.59
2017-12-13T23:12:15.773Z,6.59
2017-12-13T23:14:44.066Z,6.61
2017-12-13T23:17:12.325Z,6.66
2017-12-13T23:19:40.629Z,6.62
2017-12-13T23:22:12.777Z,6.66
2017-12-13T23:24:41.087Z,6.66
2017-12-13T23:27:12.266Z,6.72
2017-12-13T23:29:40.845Z,6.74
2017-12-13T23:32:12.350Z,6.78
2017-12-13T23:34:40.638Z,6.81
2017-12-13T23:37:12.209Z,6.82
2017-12-13T23:39:41.237Z,6.80
2017-12-13T23:42:13.309Z,6.80
2017-12-13T23:44:41.576Z,6.82
2017-12-13T23:47:13.013Z,6.82
2017-12-13T23:49:41.381Z,6.83
2017-12-13T23:52:13.520Z,6.86
2017-12-13T23:54:41.782Z,6.91
2017-12-13T23:57:13.024Z,6.84
2017-12-13T23:59:41.248Z,6.89
